createdAt,value
2022-11-06T00:02:31.324Z,6.72
2022-11-06T00:05:33.620Z,6.13
2022-11-06T00:08:37.244Z,6.10
2022-11-06T00:11:41.706Z,6.05
2022-11-06T00:14:43.756Z,6.22
2022-11-06T00:17:48.732Z,5.28
2022-11-06T00:20:50.620Z,6.88
2022-11-06T00:23:54.099Z,7.72
2022-11-06T00:26:57.345Z,7.18
2022-11-06T00:29:59.375Z,7.32
2022-11-06T00:33:01.374Z,6.72
2022-11-06T00:36:04.761Z,6.30
2022-11-06T00:39:06.995Z,7.07
2022-11-06T00:42:10.436Z,7.00
2022-11-06T00:45:12.488Z,6.60
2022-11-06T00:48:14.740Z,6.85
2022-11-06T00:51:20.296Z,6.75
2022-11-06T00:54:22.200Z,6.97
2022-11-06T00:57:25.466Z,7.00
2022-11-06T01:00:27.357Z,7.38
2022-11-06T01:03:29.255Z,7.90
2022-11-06T01:06:33.248Z,7.63
2022-11-06T01:09:35.132Z,7.18
2022-11-06T01:12:38.484Z,7.85
2022-11-06T01:15:40.449Z,7.97
2022-11-06T01:18:43.952Z,7.70
2022-11-06T01:21:48.943Z,7.97
2022-11-06T01:24:50.906Z,7.63
2022-11-06T01:27:54.204Z,8.05
2022-11-06T01:30:56.183Z,7.53
2022-11-06T01:33:59.863Z,8.23
2022-11-06T01:37:01.864Z,8.25
2022-11-06T01:40:04.224Z,8.27
2022-11-06T01:43:12.863Z,8.80
2022-11-06T01:46:15.525Z,9.18
2022-11-06T01:49:18.317Z,8.50
2022-11-06T01:52:21.489Z,8.90
2022-11-06T01:55:27.268Z,7.95
2022-11-06T01:58:33.309Z,7.97
2022-11-06T02:01:35.395Z,7.45
2022-11-06T02:04:40.627Z,7.60
2022-11-06T02:07:43.672Z,7.40
2022-11-06T02:10:46.598Z,6.95
2022-11-06T02:14:01.739Z,7.35
2022-11-06T02:17:12.366Z,7.80
2022-11-06T02:20:22.420Z,8.73
2022-11-06T02:23:50.596Z,9.20
2022-11-06T02:27:10.995Z,10.20
2022-11-06T02:30:15.030Z,10.85
2022-11-06T02:33:23.706Z,10.02
2022-11-06T02:36:32.806Z,9.93
2022-11-06T02:39:37.216Z,9.93
2022-11-06T02:42:43.511Z,10.23
2022-11-06T02:45:50.146Z,10.68
2022-11-06T02:48:57.088Z,10.23
2022-11-06T02:52:04.895Z,10.68
2022-11-06T02:55:11.231Z,10.45
2022-11-06T02:58:18.168Z,11.32
2022-11-06T03:01:26.454Z,10.73
2022-11-06T03:04:33.956Z,11.85
2022-11-06T03:07:38.855Z,12.82
2022-11-06T03:10:46.330Z,12.05
2022-11-06T03:13:56.503Z,11.85
2022-11-06T03:17:00.508Z,11.48
2022-11-06T03:20:12.756Z,12.73
2022-11-06T03:23:22.717Z,13.65
2022-11-06T03:26:30.853Z,12.68
2022-11-06T03:29:39.419Z,14.38
2022-11-06T03:32:47.314Z,13.63
2022-11-06T03:35:52.941Z,12.98
2022-11-06T03:39:00.139Z,12.95
2022-11-06T03:42:06.470Z,12.13
2022-11-06T03:45:15.440Z,12.75
2022-11-06T03:48:21.623Z,12.10
2022-11-06T03:51:29.784Z,12.60
2022-11-06T03:54:37.361Z,13.38
2022-11-06T03:57:43.018Z,14.48
2022-11-06T04:00:48.124Z,15.45
2022-11-06T04:03:54.645Z,14.70
2022-11-06T04:07:00.254Z,14.88
2022-11-06T04:10:05.439Z,14.27
2022-11-06T04:13:07.434Z,13.35
2022-11-06T04:16:12.266Z,15.07
2022-11-06T04:19:16.697Z,14.82
2022-11-06T04:22:32.091Z,14.65
2022-11-06T04:25:40.023Z,15.05
2022-11-06T04:28:52.527Z,15.18
2022-11-06T04:32:07.990Z,15.02
2022-11-06T04:35:20.963Z,15.88
2022-11-06T04:38:30.893Z,15.65
2022-11-06T04:41:39.761Z,15.57
2022-11-06T04:44:46.797Z,13.93
2022-11-06T04:47:52.086Z,13.68
2022-11-06T04:50:59.459Z,13.75
2022-11-06T04:54:01.853Z,13.00
2022-11-06T04:57:04.313Z,11.95
2022-11-06T05:00:07.421Z,13.23
2022-11-06T05:03:10.745Z,13.30
2022-11-06T05:06:13.005Z,13.07
2022-11-06T05:09:15.287Z,13.70
2022-11-06T05:12:17.209Z,13.18
2022-11-06T05:15:19.117Z,13.85
2022-11-06T05:18:22.408Z,13.68
2022-11-06T05:21:24.254Z,14.00
2022-11-06T05:24:26.123Z,13.52
2022-11-06T05:27:27.969Z,14.18
2022-11-06T05:30:29.868Z,13.70
2022-11-06T05:33:33.181Z,13.43
2022-11-06T05:36:35.095Z,13.85
2022-11-06T05:39:41.578Z,13.50
2022-11-06T05:42:44.402Z,13.18
2022-11-06T05:45:46.341Z,14.57
2022-11-06T05:48:49.578Z,13.90
2022-11-06T05:51:51.416Z,13.68
2022-11-06T05:54:53.319Z,13.63
2022-11-06T05:57:55.208Z,13.65
2022-11-06T06:00:58.183Z,14.27
2022-11-06T06:04:01.548Z,14.25
2022-11-06T06:07:03.622Z,39.97
2022-11-06T06:10:06.672Z,66.85
2022-11-06T06:13:08.731Z,35.28
2022-11-06T06:16:10.709Z,14.45
2022-11-06T06:19:14.237Z,13.18
2022-11-06T06:22:16.143Z,13.65
2022-11-06T06:25:22.857Z,14.32
2022-11-06T06:28:25.170Z,13.68
2022-11-06T06:31:27.093Z,14.07
2022-11-06T06:34:30.504Z,14.35
2022-11-06T06:37:32.420Z,14.73
2022-11-06T06:40:34.326Z,15.02
2022-11-06T06:43:36.411Z,13.68
2022-11-06T06:46:38.301Z,15.75
2022-11-06T06:49:41.508Z,15.98
2022-11-06T06:52:43.382Z,17.75
2022-11-06T06:55:45.283Z,16.77
2022-11-06T06:58:47.194Z,16.65
2022-11-06T07:01:49.175Z,14.95
2022-11-06T07:04:52.676Z,21.40
2022-11-06T07:07:54.718Z,20.15
2022-11-06T07:10:59.114Z,17.48
2022-11-06T07:14:00.994Z,16.98
2022-11-06T07:17:02.922Z,15.13
2022-11-06T07:20:08.095Z,13.93
2022-11-06T07:23:10.008Z,13.60
2022-11-06T07:26:11.852Z,13.07
2022-11-06T07:29:13.761Z,13.82
2022-11-06T07:32:15.743Z,13.73
2022-11-06T07:35:19.067Z,12.52
2022-11-06T07:38:20.964Z,14.05
2022-11-06T07:41:22.842Z,13.85
2022-11-06T07:44:24.937Z,13.70
2022-11-06T07:47:26.761Z,13.55
2022-11-06T07:50:30.781Z,14.80
2022-11-06T07:53:32.994Z,14.10
2022-11-06T07:56:35.136Z,13.50
2022-11-06T07:59:36.983Z,13.98
2022-11-06T08:02:39.213Z,13.93
2022-11-06T08:05:42.728Z,14.00
2022-11-06T08:08:44.590Z,13.02
2022-11-06T08:11:48.947Z,13.20
2022-11-06T08:14:51.091Z,13.05
2022-11-06T08:17:53.175Z,14.10
2022-11-06T08:20:56.520Z,14.05
2022-11-06T08:23:58.382Z,14.23
2022-11-06T08:27:00.485Z,14.57
2022-11-06T08:30:02.507Z,14.35
2022-11-06T08:33:07.956Z,14.85
2022-11-06T08:36:11.388Z,15.38
2022-11-06T08:39:13.677Z,13.00
2022-11-06T08:42:15.532Z,10.98
2022-11-06T08:45:17.757Z,10.13
2022-11-06T08:48:19.682Z,9.38
2022-11-06T08:51:22.967Z,8.60
2022-11-06T08:54:24.843Z,6.25
2022-11-06T08:57:27.726Z,6.45
2022-11-06T09:00:30.432Z,4.05
2022-11-06T09:03:32.480Z,4.85
2022-11-06T09:06:35.918Z,5.38
2022-11-06T09:09:38.016Z,6.03
2022-11-06T09:12:39.930Z,6.65
2022-11-06T09:15:41.967Z,6.25
2022-11-06T09:18:44.040Z,6.95
2022-11-06T09:21:53.414Z,7.68
2022-11-06T09:25:04.648Z,7.55
2022-11-06T09:28:06.728Z,8.10
2022-11-06T09:31:08.723Z,8.10
2022-11-06T09:34:10.621Z,9.32
2022-11-06T09:37:13.992Z,10.43
2022-11-06T09:40:20.629Z,10.10
2022-11-06T09:47:06.875Z,10.63
2022-11-06T09:50:17.594Z,10.38
2022-11-06T09:53:30.597Z,10.68
2022-11-06T09:56:36.524Z,10.27
2022-11-06T09:59:39.635Z,10.27
2022-11-06T10:02:45.883Z,10.68
2022-11-06T10:05:48.058Z,26.02
2022-11-06T10:08:55.212Z,37.03
2022-11-06T10:12:06.660Z,16.52
2022-11-06T10:15:20.194Z,20.77
2022-11-06T10:18:37.145Z,14.45
2022-11-06T10:21:46.750Z,13.68
2022-11-06T10:25:01.689Z,13.77
2022-11-06T10:28:10.854Z,14.00
2022-11-06T10:31:26.269Z,13.02
2022-11-06T10:34:32.912Z,13.05
2022-11-06T10:37:40.978Z,12.50
2022-11-06T10:40:46.362Z,13.40
2022-11-06T10:43:53.442Z,14.10
2022-11-06T10:47:03.658Z,14.23
2022-11-06T10:50:11.754Z,14.40
2022-11-06T10:53:24.171Z,15.88
2022-11-06T10:56:47.105Z,15.35
2022-11-06T10:59:50.378Z,16.23
2022-11-06T11:02:55.752Z,15.75
2022-11-06T11:05:57.919Z,16.38
2022-11-06T11:09:00.332Z,17.63
2022-11-06T11:12:04.363Z,17.15
2022-11-06T11:15:14.914Z,17.33
2022-11-06T11:18:18.814Z,17.67
2022-11-06T11:21:24.926Z,17.95
2022-11-06T11:24:27.683Z,16.77
2022-11-06T11:27:35.220Z,17.52
2022-11-06T11:30:37.463Z,17.88
2022-11-06T11:33:41.608Z,16.83
2022-11-06T11:36:59.150Z,16.63
2022-11-06T11:40:19.860Z,16.27
2022-11-06T11:43:27.865Z,16.48
2022-11-06T11:46:29.914Z,16.10
2022-11-06T11:49:34.450Z,16.08
2022-11-06T11:52:41.925Z,89.63
2022-11-06T11:55:48.133Z,33.53
2022-11-06T11:58:54.993Z,16.85
2022-11-06T12:02:02.651Z,16.48
2022-11-06T12:05:10.829Z,15.40
2022-11-06T12:08:22.329Z,15.15
2022-11-06T12:11:28.190Z,15.32
2022-11-06T12:14:34.637Z,14.93
2022-11-06T12:17:39.675Z,14.75
2022-11-06T12:20:45.474Z,15.43
2022-11-06T12:23:51.571Z,14.85
2022-11-06T12:26:58.629Z,14.20
2022-11-06T12:30:07.556Z,14.70
2022-11-06T12:33:15.008Z,14.05
2022-11-06T12:36:19.651Z,13.65
2022-11-06T12:39:27.702Z,13.52
2022-11-06T12:42:32.801Z,13.23
2022-11-06T12:45:52.230Z,14.27
2022-11-06T12:49:15.660Z,14.85
2022-11-06T12:52:33.027Z,13.63
2022-11-06T12:55:40.576Z,14.55
2022-11-06T12:58:57.522Z,13.70
2022-11-06T13:02:19.986Z,14.40
2022-11-06T13:05:31.355Z,13.27
2022-11-06T13:08:41.767Z,13.65
2022-11-06T13:11:52.903Z,13.15
2022-11-06T13:15:09.212Z,12.65
2022-11-06T13:18:20.264Z,12.40
2022-11-06T13:21:30.871Z,12.73
2022-11-06T13:24:38.428Z,12.25
2022-11-06T13:27:45.179Z,12.57
2022-11-06T13:30:47.880Z,12.48
2022-11-06T13:33:54.922Z,12.73
2022-11-06T13:36:58.043Z,12.88
2022-11-06T13:40:05.087Z,12.70
2022-11-06T13:43:15.376Z,12.90
2022-11-06T13:46:27.334Z,13.93
2022-11-06T13:49:40.301Z,13.48
2022-11-06T13:52:49.793Z,13.15
2022-11-06T13:56:05.174Z,12.98
2022-11-06T13:59:35.954Z,13.60
2022-11-06T14:03:05.887Z,13.80
2022-11-06T14:06:16.290Z,14.32
2022-11-06T14:09:22.591Z,13.32
2022-11-06T14:12:24.889Z,12.52
2022-11-06T14:15:35.123Z,12.73
2022-11-06T14:18:37.937Z,13.57
2022-11-06T14:21:51.073Z,12.63
2022-11-06T14:25:00.010Z,13.07
2022-11-06T14:28:06.499Z,13.10
2022-11-06T14:31:14.643Z,13.18
2022-11-06T14:34:28.280Z,12.82
2022-11-06T14:37:48.669Z,12.65
2022-11-06T14:40:51.000Z,11.95
2022-11-06T14:43:55.055Z,12.15
2022-11-06T14:46:59.671Z,12.50
2022-11-06T14:50:23.346Z,13.20
2022-11-06T14:53:31.742Z,12.40
2022-11-06T14:56:37.574Z,12.00
2022-11-06T14:59:42.005Z,12.88
2022-11-06T15:02:44.351Z,12.32
2022-11-06T15:05:51.995Z,12.40
2022-11-06T15:09:13.630Z,8.85
2022-11-06T15:12:15.643Z,11.30
2022-11-06T15:15:20.766Z,11.73
2022-11-06T15:18:25.747Z,12.02
2022-11-06T15:21:33.357Z,11.23
2022-11-06T15:24:41.744Z,12.02
2022-11-06T15:27:48.958Z,10.90
2022-11-06T15:30:55.775Z,11.15
2022-11-06T15:34:02.799Z,10.65
2022-11-06T15:37:10.725Z,11.02
2022-11-06T15:40:28.684Z,10.85
2022-11-06T15:43:35.188Z,11.15
2022-11-06T15:46:37.394Z,10.68
2022-11-06T15:49:39.911Z,10.68
2022-11-06T15:52:43.435Z,10.18
2022-11-06T15:55:51.950Z,9.60
2022-11-06T15:59:08.944Z,10.27
2022-11-06T16:02:16.516Z,10.93
2022-11-06T16:05:20.615Z,11.40
2022-11-06T16:08:25.574Z,12.18
2022-11-06T16:11:29.621Z,11.35
2022-11-06T16:14:33.362Z,11.88
2022-11-06T16:17:35.825Z,11.07
2022-11-06T16:20:38.544Z,11.27
2022-11-06T16:23:45.281Z,9.25
2022-11-06T16:26:50.939Z,15.63
2022-11-06T16:29:55.580Z,18.27
2022-11-06T16:32:59.249Z,11.50
2022-11-06T16:36:10.303Z,13.00
2022-11-06T16:39:48.921Z,9.48
2022-11-06T16:43:02.751Z,9.38
2022-11-06T16:46:06.267Z,8.52
2022-11-06T16:49:32.671Z,8.00
2022-11-06T16:52:37.668Z,7.97
2022-11-06T16:55:40.867Z,7.97
2022-11-06T16:58:53.058Z,7.85
2022-11-06T17:01:55.873Z,8.40
2022-11-06T17:05:11.624Z,7.28
2022-11-06T17:08:23.315Z,7.88
2022-11-06T17:11:26.211Z,7.22
2022-11-06T17:14:30.825Z,7.43
2022-11-06T17:17:37.596Z,7.60
2022-11-06T17:20:46.812Z,7.20
2022-11-06T17:23:50.625Z,7.40
2022-11-06T17:26:54.019Z,7.15
2022-11-06T17:29:58.245Z,7.63
2022-11-06T17:33:00.708Z,7.40
2022-11-06T17:36:03.790Z,6.85
2022-11-06T17:39:07.229Z,6.65
2022-11-06T17:42:10.305Z,6.80
2022-11-06T17:45:15.809Z,6.93
2022-11-06T17:48:19.081Z,6.88
2022-11-06T17:51:22.245Z,7.25
2022-11-06T17:54:26.774Z,7.97
2022-11-06T17:57:29.761Z,7.30
2022-11-06T18:00:34.042Z,7.43
2022-11-06T18:03:42.905Z,7.65
2022-11-06T18:06:46.337Z,7.03
2022-11-06T18:09:51.576Z,5.90
2022-11-06T18:12:54.786Z,6.30
2022-11-06T18:15:59.843Z,6.80
2022-11-06T18:19:05.697Z,7.00
2022-11-06T18:22:08.473Z,6.45
2022-11-06T18:25:11.230Z,8.45
2022-11-06T18:28:15.089Z,8.55
2022-11-06T18:31:20.405Z,9.77
2022-11-06T18:34:24.355Z,8.43
2022-11-06T18:37:27.528Z,15.30
2022-11-06T18:40:30.617Z,7.22
2022-11-06T18:43:33.768Z,17.05
2022-11-06T18:46:41.687Z,8.23
2022-11-06T18:49:46.441Z,7.95
2022-11-06T18:52:57.871Z,24.80
2022-11-06T18:56:01.371Z,29.67
2022-11-06T18:59:05.515Z,22.48
2022-11-06T19:02:11.095Z,19.20
2022-11-06T19:05:15.066Z,33.78
2022-11-06T19:08:18.803Z,22.48
2022-11-06T19:11:23.659Z,9.15
2022-11-06T19:14:27.108Z,8.20
2022-11-06T19:17:32.617Z,7.70
2022-11-06T19:20:35.463Z,8.20
2022-11-06T19:23:39.860Z,7.55
2022-11-06T19:26:43.381Z,6.85
2022-11-06T19:29:46.687Z,9.38
2022-11-06T19:32:51.346Z,9.27
2022-11-06T19:35:54.720Z,11.02
2022-11-06T19:38:58.985Z,11.32
2022-11-06T19:42:02.495Z,9.18
2022-11-06T19:45:06.088Z,10.23
2022-11-06T19:48:13.641Z,12.60
2022-11-06T19:51:17.718Z,12.18
2022-11-06T19:54:20.759Z,13.50
2022-11-06T19:57:27.100Z,13.50
2022-11-06T20:00:33.466Z,12.75
2022-11-06T20:03:37.925Z,10.32
2022-11-06T20:06:41.619Z,9.95
2022-11-06T20:09:44.957Z,10.25
2022-11-06T20:12:48.252Z,10.10
2022-11-06T20:15:51.686Z,8.43
2022-11-06T20:18:59.860Z,9.40
2022-11-06T20:22:02.971Z,9.20
2022-11-06T20:25:07.503Z,10.05
2022-11-06T20:28:10.206Z,10.90
2022-11-06T20:31:14.967Z,10.40
2022-11-06T20:34:19.811Z,9.98
2022-11-06T20:37:26.063Z,11.23
2022-11-06T20:40:34.554Z,12.80
2022-11-06T20:43:37.455Z,14.27
2022-11-06T20:46:41.343Z,14.50
2022-11-06T20:49:45.923Z,10.48
2022-11-06T20:52:48.668Z,11.13
2022-11-06T20:55:56.811Z,12.85
2022-11-06T20:58:59.546Z,12.93
2022-11-06T21:02:02.792Z,10.82
2022-11-06T21:05:10.882Z,9.13
2022-11-06T21:08:13.745Z,9.25
2022-11-06T21:11:18.535Z,9.73
2022-11-06T21:14:21.179Z,9.57
2022-11-06T21:17:23.536Z,9.27
2022-11-06T21:20:27.533Z,10.18
2022-11-06T21:23:31.793Z,9.70
2022-11-06T21:26:36.749Z,11.15
2022-11-06T21:29:38.955Z,9.88
2022-11-06T21:32:41.041Z,9.82
2022-11-06T21:35:44.635Z,9.98
2022-11-06T21:38:47.912Z,10.27
2022-11-06T21:41:50.207Z,9.80
2022-11-06T21:44:52.527Z,9.75
2022-11-06T21:47:54.814Z,9.68
2022-11-06T21:51:03.712Z,8.57
2022-11-06T21:54:07.217Z,8.75
2022-11-06T21:57:09.615Z,8.20
2022-11-06T22:00:14.512Z,8.38
2022-11-06T22:03:16.911Z,8.35
2022-11-06T22:06:22.504Z,8.30
2022-11-06T22:09:25.795Z,8.45
2022-11-06T22:12:28.016Z,10.57
2022-11-06T22:15:29.990Z,8.65
2022-11-06T22:18:31.884Z,8.70
2022-11-06T22:21:36.722Z,9.15
2022-11-06T22:24:38.647Z,9.45
2022-11-06T22:27:41.159Z,8.75
2022-11-06T22:30:43.223Z,8.85
2022-11-06T22:33:48.013Z,8.80
2022-11-06T22:39:57.567Z,5.93
2022-11-06T22:42:59.501Z,2.70
2022-11-06T22:46:03.316Z,1.85
2022-11-06T22:49:05.770Z,1.60
2022-11-06T22:52:09.107Z,1.80
2022-11-06T22:55:11.058Z,2.20
2022-11-06T22:58:13.183Z,1.30
2022-11-06T23:01:15.078Z,0.90
2022-11-06T23:04:16.995Z,0.77
2022-11-06T23:07:20.286Z,0.70
2022-11-06T23:10:22.243Z,1.10
2022-11-06T23:13:24.381Z,0.90
2022-11-06T23:16:27.562Z,0.98
2022-11-06T23:19:30.927Z,0.90
2022-11-06T23:22:34.276Z,0.80
2022-11-06T23:25:36.364Z,1.13
2022-11-06T23:28:38.312Z,2.38
2022-11-06T23:31:40.244Z,2.30
2022-11-06T23:34:42.181Z,3.17
2022-11-06T23:37:45.519Z,3.15
2022-11-06T23:40:47.433Z,2.00
2022-11-06T23:43:50.029Z,2.20
2022-11-06T23:46:51.949Z,1.10
2022-11-06T23:49:53.920Z,1.17
2022-11-06T23:52:57.218Z,1.00
2022-11-06T23:55:59.078Z,1.00
2022-11-06T23:59:01.084Z,0.90
